sensor_id;sensor_type;location;lat;lon;timestamp;P1;durP1;ratioP1;P2;durP2;ratioP2
71777;SDS011;59609;52.430;4.668;2023-04-09T00:02:21;34.92;;;16.55;;
71777;SDS011;59609;52.430;4.668;2023-04-09T00:04:47;32.65;;;16.92;;
71777;SDS011;59609;52.430;4.668;2023-04-09T00:07:12;36.35;;;15.63;;
71777;SDS011;59609;52.430;4.668;2023-04-09T00:09:37;32.70;;;16.77;;
71777;SDS011;59609;52.430;4.668;2023-04-09T00:12:03;32.95;;;17.48;;
71777;SDS011;59609;52.430;4.668;2023-04-09T00:14:28;32.38;;;16.15;;
71777;SDS011;59609;52.430;4.668;2023-04-09T00:16:54;35.45;;;17.23;;
71777;SDS011;59609;52.430;4.668;2023-04-09T00:19:19;35.65;;;16.35;;
71777;SDS011;59609;52.430;4.668;2023-04-09T00:21:45;36.67;;;17.02;;
71777;SDS011;59609;52.430;4.668;2023-04-09T00:24:10;34.30;;;16.60;;
71777;SDS011;59609;52.430;4.668;2023-04-09T00:26:36;30.90;;;15.88;;
71777;SDS011;59609;52.430;4.668;2023-04-09T00:29:01;38.53;;;17.25;;
71777;SDS011;59609;52.430;4.668;2023-04-09T00:31:26;40.75;;;18.20;;
71777;SDS011;59609;52.430;4.668;2023-04-09T00:33:52;40.10;;;18.85;;
71777;SDS011;59609;52.430;4.668;2023-04-09T00:36:17;37.38;;;18.08;;
71777;SDS011;59609;52.430;4.668;2023-04-09T00:38:42;34.70;;;17.13;;
71777;SDS011;59609;52.430;4.668;2023-04-09T00:41:08;35.92;;;17.45;;
71777;SDS011;59609;52.430;4.668;2023-04-09T00:43:33;35.75;;;16.90;;
71777;SDS011;59609;52.430;4.668;2023-04-09T00:45:59;35.03;;;16.52;;
71777;SDS011;59609;52.430;4.668;2023-04-09T00:48:24;33.22;;;17.15;;
71777;SDS011;59609;52.430;4.668;2023-04-09T00:50:51;33.90;;;17.67;;
71777;SDS011;59609;52.430;4.668;2023-04-09T00:53:16;34.92;;;17.48;;
71777;SDS011;59609;52.430;4.668;2023-04-09T00:55:42;35.92;;;17.45;;
71777;SDS011;59609;52.430;4.668;2023-04-09T00:58:08;34.88;;;17.63;;
71777;SDS011;59609;52.430;4.668;2023-04-09T01:00:33;35.88;;;16.83;;
71777;SDS011;59609;52.430;4.668;2023-04-09T01:02:59;35.30;;;17.30;;
71777;SDS011;59609;52.430;4.668;2023-04-09T01:05:26;38.92;;;18.40;;
71777;SDS011;59609;52.430;4.668;2023-04-09T01:13:19;34.53;;;15.90;;
71777;SDS011;59609;52.430;4.668;2023-04-09T01:15:55;34.13;;;15.68;;
71777;SDS011;59609;52.430;4.668;2023-04-09T01:18:39;34.92;;;17.15;;
71777;SDS011;59609;52.430;4.668;2023-04-09T01:21:12;37.83;;;18.88;;
71777;SDS011;59609;52.430;4.668;2023-04-09T01:28:55;32.08;;;16.50;;
71777;SDS011;59609;52.430;4.668;2023-04-09T01:31:27;34.70;;;17.00;;
71777;SDS011;59609;52.430;4.668;2023-04-09T01:36:21;37.08;;;17.00;;
71777;SDS011;59609;52.430;4.668;2023-04-09T01:38:48;36.15;;;17.13;;
71777;SDS011;59609;52.430;4.668;2023-04-09T01:41:16;35.85;;;17.92;;
71777;SDS011;59609;52.430;4.668;2023-04-09T01:43:43;35.47;;;17.33;;
71777;SDS011;59609;52.430;4.668;2023-04-09T01:46:09;35.78;;;16.63;;
71777;SDS011;59609;52.430;4.668;2023-04-09T01:48:36;33.50;;;16.80;;
71777;SDS011;59609;52.430;4.668;2023-04-09T01:51:02;34.67;;;16.67;;
71777;SDS011;59609;52.430;4.668;2023-04-09T01:53:27;34.67;;;17.70;;
71777;SDS011;59609;52.430;4.668;2023-04-09T01:55:54;37.75;;;17.52;;
71777;SDS011;59609;52.430;4.668;2023-04-09T01:58:20;34.40;;;17.25;;
71777;SDS011;59609;52.430;4.668;2023-04-09T02:00:46;36.78;;;16.30;;
71777;SDS011;59609;52.430;4.668;2023-04-09T02:03:17;39.65;;;18.48;;
71777;SDS011;59609;52.430;4.668;2023-04-09T02:05:52;36.05;;;17.10;;
71777;SDS011;59609;52.430;4.668;2023-04-09T02:08:21;36.03;;;17.23;;
71777;SDS011;59609;52.430;4.668;2023-04-09T02:10:53;32.13;;;16.88;;
71777;SDS011;59609;52.430;4.668;2023-04-09T02:13:20;38.63;;;18.15;;
71777;SDS011;59609;52.430;4.668;2023-04-09T02:15:47;37.35;;;17.45;;
71777;SDS011;59609;52.430;4.668;2023-04-09T02:18:21;34.55;;;16.63;;
71777;SDS011;59609;52.430;4.668;2023-04-09T02:20:48;35.50;;;17.27;;
71777;SDS011;59609;52.430;4.668;2023-04-09T02:23:14;34.17;;;17.05;;
71777;SDS011;59609;52.430;4.668;2023-04-09T02:25:40;33.40;;;16.67;;
71777;SDS011;59609;52.430;4.668;2023-04-09T02:28:05;35.05;;;17.50;;
71777;SDS011;59609;52.430;4.668;2023-04-09T02:30:31;33.97;;;16.90;;
71777;SDS011;59609;52.430;4.668;2023-04-09T02:32:56;32.90;;;16.38;;
71777;SDS011;59609;52.430;4.668;2023-04-09T02:35:21;37.38;;;17.23;;
71777;SDS011;59609;52.430;4.668;2023-04-09T02:37:47;37.17;;;17.48;;
71777;SDS011;59609;52.430;4.668;2023-04-09T02:40:12;34.78;;;16.88;;
71777;SDS011;59609;52.430;4.668;2023-04-09T02:42:37;36.65;;;16.65;;
71777;SDS011;59609;52.430;4.668;2023-04-09T02:45:03;36.72;;;16.33;;
71777;SDS011;59609;52.430;4.668;2023-04-09T02:47:28;38.88;;;17.50;;
71777;SDS011;59609;52.430;4.668;2023-04-09T02:49:54;34.20;;;17.50;;
71777;SDS011;59609;52.430;4.668;2023-04-09T02:52:19;35.47;;;17.45;;
71777;SDS011;59609;52.430;4.668;2023-04-09T02:54:48;36.78;;;17.08;;
71777;SDS011;59609;52.430;4.668;2023-04-09T02:57:13;37.22;;;16.73;;
71777;SDS011;59609;52.430;4.668;2023-04-09T02:59:39;35.80;;;16.70;;
71777;SDS011;59609;52.430;4.668;2023-04-09T03:02:04;37.92;;;17.98;;
71777;SDS011;59609;52.430;4.668;2023-04-09T03:04:30;37.30;;;16.83;;
71777;SDS011;59609;52.430;4.668;2023-04-09T03:06:55;35.30;;;17.48;;
71777;SDS011;59609;52.430;4.668;2023-04-09T03:09:20;36.80;;;16.45;;
71777;SDS011;59609;52.430;4.668;2023-04-09T03:11:46;37.97;;;16.83;;
71777;SDS011;59609;52.430;4.668;2023-04-09T03:14:11;35.15;;;15.35;;
71777;SDS011;59609;52.430;4.668;2023-04-09T03:16:36;38.15;;;16.50;;
71777;SDS011;59609;52.430;4.668;2023-04-09T03:19:02;36.45;;;16.42;;
71777;SDS011;59609;52.430;4.668;2023-04-09T03:21:27;33.40;;;15.80;;
71777;SDS011;59609;52.430;4.668;2023-04-09T03:23:53;34.50;;;16.38;;
71777;SDS011;59609;52.430;4.668;2023-04-09T03:26:18;36.00;;;16.23;;
71777;SDS011;59609;52.430;4.668;2023-04-09T03:28:43;30.23;;;14.15;;
71777;SDS011;59609;52.430;4.668;2023-04-09T03:31:09;37.67;;;15.93;;
71777;SDS011;59609;52.430;4.668;2023-04-09T03:33:34;34.70;;;16.45;;
71777;SDS011;59609;52.430;4.668;2023-04-09T03:36:00;32.50;;;15.07;;
71777;SDS011;59609;52.430;4.668;2023-04-09T03:38:25;34.00;;;14.90;;
71777;SDS011;59609;52.430;4.668;2023-04-09T03:40:50;43.95;;;16.10;;
71777;SDS011;59609;52.430;4.668;2023-04-09T03:43:16;38.03;;;16.80;;
71777;SDS011;59609;52.430;4.668;2023-04-09T03:45:41;39.85;;;15.88;;
71777;SDS011;59609;52.430;4.668;2023-04-09T03:48:07;42.47;;;16.73;;
71777;SDS011;59609;52.430;4.668;2023-04-09T03:50:36;41.78;;;16.63;;
71777;SDS011;59609;52.430;4.668;2023-04-09T03:53:03;36.72;;;15.82;;
71777;SDS011;59609;52.430;4.668;2023-04-09T03:55:28;43.30;;;16.35;;
71777;SDS011;59609;52.430;4.668;2023-04-09T03:57:54;39.20;;;16.27;;
71777;SDS011;59609;52.430;4.668;2023-04-09T04:00:19;37.53;;;15.93;;
71777;SDS011;59609;52.430;4.668;2023-04-09T04:02:46;44.05;;;18.50;;
71777;SDS011;59609;52.430;4.668;2023-04-09T04:05:11;41.28;;;16.38;;
71777;SDS011;59609;52.430;4.668;2023-04-09T04:07:37;41.08;;;15.85;;
71777;SDS011;59609;52.430;4.668;2023-04-09T04:10:03;38.58;;;15.95;;
71777;SDS011;59609;52.430;4.668;2023-04-09T04:12:30;43.65;;;16.58;;
71777;SDS011;59609;52.430;4.668;2023-04-09T04:14:55;43.28;;;16.38;;
71777;SDS011;59609;52.430;4.668;2023-04-09T04:17:21;40.90;;;16.00;;
71777;SDS011;59609;52.430;4.668;2023-04-09T04:19:46;37.45;;;15.68;;
71777;SDS011;59609;52.430;4.668;2023-04-09T04:22:11;39.22;;;14.20;;
71777;SDS011;59609;52.430;4.668;2023-04-09T04:24:37;39.25;;;15.63;;
71777;SDS011;59609;52.430;4.668;2023-04-09T04:27:02;34.75;;;13.38;;
71777;SDS011;59609;52.430;4.668;2023-04-09T04:29:28;39.67;;;16.33;;
71777;SDS011;59609;52.430;4.668;2023-04-09T04:31:53;41.50;;;15.23;;
71777;SDS011;59609;52.430;4.668;2023-04-09T04:34:19;39.40;;;15.70;;
71777;SDS011;59609;52.430;4.668;2023-04-09T04:36:44;36.90;;;16.23;;
71777;SDS011;59609;52.430;4.668;2023-04-09T04:39:10;38.55;;;15.20;;
71777;SDS011;59609;52.430;4.668;2023-04-09T04:41:35;41.03;;;16.90;;
71777;SDS011;59609;52.430;4.668;2023-04-09T04:44:00;44.20;;;16.05;;
71777;SDS011;59609;52.430;4.668;2023-04-09T04:46:26;40.97;;;15.27;;
71777;SDS011;59609;52.430;4.668;2023-04-09T04:48:51;38.78;;;15.68;;
71777;SDS011;59609;52.430;4.668;2023-04-09T04:51:16;40.50;;;15.43;;
71777;SDS011;59609;52.430;4.668;2023-04-09T04:53:43;38.92;;;14.68;;
71777;SDS011;59609;52.430;4.668;2023-04-09T04:56:12;41.22;;;16.67;;
71777;SDS011;59609;52.430;4.668;2023-04-09T04:58:38;41.83;;;15.32;;
71777;SDS011;59609;52.430;4.668;2023-04-09T05:01:03;40.05;;;15.80;;
71777;SDS011;59609;52.430;4.668;2023-04-09T05:03:29;41.63;;;15.65;;
71777;SDS011;59609;52.430;4.668;2023-04-09T05:05:54;37.03;;;14.85;;
71777;SDS011;59609;52.430;4.668;2023-04-09T05:08:20;39.83;;;14.02;;
71777;SDS011;59609;52.430;4.668;2023-04-09T05:10:45;37.90;;;14.90;;
71777;SDS011;59609;52.430;4.668;2023-04-09T05:13:10;38.88;;;14.50;;
71777;SDS011;59609;52.430;4.668;2023-04-09T05:15:39;39.22;;;14.45;;
71777;SDS011;59609;52.430;4.668;2023-04-09T05:18:05;40.72;;;16.08;;
71777;SDS011;59609;52.430;4.668;2023-04-09T05:20:32;34.78;;;14.07;;
71777;SDS011;59609;52.430;4.668;2023-04-09T05:22:57;39.15;;;16.20;;
71777;SDS011;59609;52.430;4.668;2023-04-09T05:25:23;38.88;;;16.55;;
71777;SDS011;59609;52.430;4.668;2023-04-09T05:27:48;39.50;;;16.30;;
71777;SDS011;59609;52.430;4.668;2023-04-09T05:30:14;41.28;;;16.70;;
71777;SDS011;59609;52.430;4.668;2023-04-09T05:32:40;39.97;;;16.23;;
71777;SDS011;59609;52.430;4.668;2023-04-09T05:35:05;38.30;;;15.07;;
71777;SDS011;59609;52.430;4.668;2023-04-09T05:37:31;37.50;;;15.35;;
71777;SDS011;59609;52.430;4.668;2023-04-09T05:39:56;37.40;;;15.23;;
71777;SDS011;59609;52.430;4.668;2023-04-09T05:42:22;36.45;;;14.57;;
71777;SDS011;59609;52.430;4.668;2023-04-09T05:44:47;38.47;;;15.85;;
71777;SDS011;59609;52.430;4.668;2023-04-09T05:47:12;39.67;;;15.50;;
71777;SDS011;59609;52.430;4.668;2023-04-09T05:49:38;35.75;;;15.07;;
71777;SDS011;59609;52.430;4.668;2023-04-09T05:52:03;36.22;;;14.48;;
71777;SDS011;59609;52.430;4.668;2023-04-09T05:54:29;36.25;;;15.80;;
71777;SDS011;59609;52.430;4.668;2023-04-09T05:56:55;38.40;;;15.60;;
71777;SDS011;59609;52.430;4.668;2023-04-09T05:59:20;33.30;;;14.30;;
71777;SDS011;59609;52.430;4.668;2023-04-09T06:01:46;34.63;;;14.40;;
71777;SDS011;59609;52.430;4.668;2023-04-09T06:04:11;37.22;;;15.82;;
71777;SDS011;59609;52.430;4.668;2023-04-09T06:06:37;40.65;;;15.10;;
71777;SDS011;59609;52.430;4.668;2023-04-09T06:09:03;34.70;;;15.05;;
71777;SDS011;59609;52.430;4.668;2023-04-09T06:11:28;35.28;;;15.82;;
71777;SDS011;59609;52.430;4.668;2023-04-09T06:13:55;32.72;;;15.45;;
71777;SDS011;59609;52.430;4.668;2023-04-09T06:16:20;35.80;;;16.10;;
71777;SDS011;59609;52.430;4.668;2023-04-09T06:18:46;37.08;;;15.80;;
71777;SDS011;59609;52.430;4.668;2023-04-09T06:21:14;36.35;;;15.05;;
71777;SDS011;59609;52.430;4.668;2023-04-09T06:23:39;34.83;;;16.17;;
71777;SDS011;59609;52.430;4.668;2023-04-09T06:26:05;33.22;;;15.30;;
71777;SDS011;59609;52.430;4.668;2023-04-09T06:28:31;33.65;;;14.32;;
71777;SDS011;59609;52.430;4.668;2023-04-09T06:30:56;33.40;;;15.07;;
71777;SDS011;59609;52.430;4.668;2023-04-09T06:33:22;33.08;;;13.65;;
71777;SDS011;59609;52.430;4.668;2023-04-09T06:35:47;35.80;;;14.05;;
71777;SDS011;59609;52.430;4.668;2023-04-09T06:38:14;36.03;;;14.85;;
71777;SDS011;59609;52.430;4.668;2023-04-09T06:40:39;35.03;;;15.25;;
71777;SDS011;59609;52.430;4.668;2023-04-09T06:43:05;34.75;;;13.90;;
71777;SDS011;59609;52.430;4.668;2023-04-09T06:45:30;37.72;;;15.68;;
71777;SDS011;59609;52.430;4.668;2023-04-09T06:47:57;34.20;;;15.45;;
71777;SDS011;59609;52.430;4.668;2023-04-09T06:50:22;32.53;;;15.60;;
71777;SDS011;59609;52.430;4.668;2023-04-09T06:52:48;36.45;;;15.82;;
71777;SDS011;59609;52.430;4.668;2023-04-09T06:55:13;38.88;;;16.50;;
71777;SDS011;59609;52.430;4.668;2023-04-09T06:57:39;33.42;;;13.68;;
71777;SDS011;59609;52.430;4.668;2023-04-09T07:00:05;30.05;;;13.68;;
71777;SDS011;59609;52.430;4.668;2023-04-09T07:02:30;30.77;;;14.85;;
71777;SDS011;59609;52.430;4.668;2023-04-09T07:04:56;36.50;;;15.30;;
71777;SDS011;59609;52.430;4.668;2023-04-09T07:07:21;38.35;;;16.13;;
71777;SDS011;59609;52.430;4.668;2023-04-09T07:09:47;37.55;;;16.70;;
71777;SDS011;59609;52.430;4.668;2023-04-09T07:12:13;34.35;;;14.93;;
71777;SDS011;59609;52.430;4.668;2023-04-09T07:14:38;36.67;;;15.60;;
71777;SDS011;59609;52.430;4.668;2023-04-09T07:17:03;33.95;;;15.93;;
71777;SDS011;59609;52.430;4.668;2023-04-09T07:19:29;35.13;;;15.30;;
71777;SDS011;59609;52.430;4.668;2023-04-09T07:21:55;34.67;;;15.68;;
71777;SDS011;59609;52.430;4.668;2023-04-09T07:24:20;35.83;;;16.48;;
71777;SDS011;59609;52.430;4.668;2023-04-09T07:26:45;34.08;;;15.30;;
71777;SDS011;59609;52.430;4.668;2023-04-09T07:29:11;35.60;;;15.48;;
71777;SDS011;59609;52.430;4.668;2023-04-09T07:31:36;36.13;;;14.25;;
71777;SDS011;59609;52.430;4.668;2023-04-09T07:34:01;36.42;;;15.90;;
71777;SDS011;59609;52.430;4.668;2023-04-09T07:36:27;34.33;;;14.80;;
71777;SDS011;59609;52.430;4.668;2023-04-09T07:38:52;38.15;;;16.52;;
71777;SDS011;59609;52.430;4.668;2023-04-09T07:41:18;35.55;;;16.38;;
71777;SDS011;59609;52.430;4.668;2023-04-09T07:43:43;36.83;;;16.60;;
71777;SDS011;59609;52.430;4.668;2023-04-09T07:46:08;36.75;;;16.45;;
71777;SDS011;59609;52.430;4.668;2023-04-09T07:48:34;34.85;;;15.38;;
71777;SDS011;59609;52.430;4.668;2023-04-09T07:50:59;38.03;;;16.17;;
71777;SDS011;59609;52.430;4.668;2023-04-09T07:53:25;37.42;;;16.33;;
71777;SDS011;59609;52.430;4.668;2023-04-09T07:55:50;36.05;;;15.38;;
71777;SDS011;59609;52.430;4.668;2023-04-09T07:58:16;34.50;;;15.02;;
71777;SDS011;59609;52.430;4.668;2023-04-09T08:00:41;32.25;;;14.98;;
71777;SDS011;59609;52.430;4.668;2023-04-09T08:03:06;35.47;;;15.82;;
71777;SDS011;59609;52.430;4.668;2023-04-09T08:05:32;33.30;;;15.70;;
71777;SDS011;59609;52.430;4.668;2023-04-09T08:07:58;35.65;;;14.80;;
71777;SDS011;59609;52.430;4.668;2023-04-09T08:10:24;35.45;;;15.48;;
71777;SDS011;59609;52.430;4.668;2023-04-09T08:12:50;37.28;;;16.95;;
71777;SDS011;59609;52.430;4.668;2023-04-09T08:15:15;37.35;;;16.75;;
71777;SDS011;59609;52.430;4.668;2023-04-09T08:17:40;39.28;;;16.83;;
71777;SDS011;59609;52.430;4.668;2023-04-09T08:20:06;37.50;;;15.80;;
71777;SDS011;59609;52.430;4.668;2023-04-09T08:22:32;35.33;;;15.90;;
71777;SDS011;59609;52.430;4.668;2023-04-09T08:24:58;38.30;;;15.55;;
71777;SDS011;59609;52.430;4.668;2023-04-09T08:27:24;33.42;;;15.95;;
71777;SDS011;59609;52.430;4.668;2023-04-09T08:29:49;35.58;;;16.23;;
71777;SDS011;59609;52.430;4.668;2023-04-09T08:32:15;33.90;;;16.13;;
71777;SDS011;59609;52.430;4.668;2023-04-09T08:34:40;36.97;;;15.85;;
71777;SDS011;59609;52.430;4.668;2023-04-09T08:37:06;36.47;;;15.38;;
71777;SDS011;59609;52.430;4.668;2023-04-09T08:39:31;35.97;;;16.85;;
71777;SDS011;59609;52.430;4.668;2023-04-09T08:41:57;34.22;;;16.20;;
71777;SDS011;59609;52.430;4.668;2023-04-09T08:44:26;34.05;;;15.60;;
71777;SDS011;59609;52.430;4.668;2023-04-09T08:46:52;32.30;;;15.45;;
71777;SDS011;59609;52.430;4.668;2023-04-09T08:49:18;34.60;;;14.85;;
71777;SDS011;59609;52.430;4.668;2023-04-09T08:51:45;36.35;;;15.90;;
71777;SDS011;59609;52.430;4.668;2023-04-09T08:54:13;34.67;;;14.13;;
71777;SDS011;59609;52.430;4.668;2023-04-09T08:56:45;35.10;;;16.33;;
71777;SDS011;59609;52.430;4.668;2023-04-09T08:59:15;39.45;;;16.77;;
71777;SDS011;59609;52.430;4.668;2023-04-09T09:01:42;33.92;;;15.55;;
71777;SDS011;59609;52.430;4.668;2023-04-09T09:04:08;35.90;;;14.90;;
71777;SDS011;59609;52.430;4.668;2023-04-09T09:06:37;38.22;;;16.30;;
71777;SDS011;59609;52.430;4.668;2023-04-09T09:09:08;36.25;;;16.30;;
71777;SDS011;59609;52.430;4.668;2023-04-09T09:14:06;36.85;;;16.52;;
71777;SDS011;59609;52.430;4.668;2023-04-09T09:16:33;36.65;;;16.35;;
71777;SDS011;59609;52.430;4.668;2023-04-09T09:19:00;41.53;;;17.02;;
71777;SDS011;59609;52.430;4.668;2023-04-09T09:21:26;40.90;;;15.45;;
71777;SDS011;59609;52.430;4.668;2023-04-09T09:23:53;36.78;;;15.73;;
71777;SDS011;59609;52.430;4.668;2023-04-09T09:26:25;39.47;;;15.18;;
71777;SDS011;59609;52.430;4.668;2023-04-09T09:28:53;37.65;;;15.25;;
71777;SDS011;59609;52.430;4.668;2023-04-09T09:31:19;33.30;;;16.38;;
71777;SDS011;59609;52.430;4.668;2023-04-09T09:33:46;34.72;;;14.48;;
71777;SDS011;59609;52.430;4.668;2023-04-09T09:36:12;35.67;;;15.68;;
71777;SDS011;59609;52.430;4.668;2023-04-09T09:38:53;34.55;;;16.27;;
71777;SDS011;59609;52.430;4.668;2023-04-09T09:41:20;33.28;;;15.35;;
71777;SDS011;59609;52.430;4.668;2023-04-09T09:43:46;32.75;;;15.40;;
71777;SDS011;59609;52.430;4.668;2023-04-09T09:46:12;34.90;;;15.30;;
71777;SDS011;59609;52.430;4.668;2023-04-09T09:48:37;33.15;;;14.90;;
71777;SDS011;59609;52.430;4.668;2023-04-09T09:51:06;35.17;;;15.50;;
71777;SDS011;59609;52.430;4.668;2023-04-09T09:53:34;35.90;;;16.45;;
71777;SDS011;59609;52.430;4.668;2023-04-09T09:56:01;36.33;;;16.48;;
71777;SDS011;59609;52.430;4.668;2023-04-09T09:58:33;38.22;;;15.57;;
71777;SDS011;59609;52.430;4.668;2023-04-09T10:01:06;34.40;;;14.25;;
71777;SDS011;59609;52.430;4.668;2023-04-09T10:03:33;32.20;;;13.93;;
71777;SDS011;59609;52.430;4.668;2023-04-09T10:06:01;35.45;;;16.35;;
71777;SDS011;59609;52.430;4.668;2023-04-09T10:08:28;36.08;;;16.20;;
71777;SDS011;59609;52.430;4.668;2023-04-09T10:10:57;35.22;;;16.27;;
71777;SDS011;59609;52.430;4.668;2023-04-09T10:13:29;36.25;;;15.50;;
71777;SDS011;59609;52.430;4.668;2023-04-09T10:15:59;32.83;;;14.95;;
71777;SDS011;59609;52.430;4.668;2023-04-09T10:18:25;31.95;;;15.75;;
71777;SDS011;59609;52.430;4.668;2023-04-09T10:20:58;36.30;;;16.42;;
71777;SDS011;59609;52.430;4.668;2023-04-09T10:23:44;36.78;;;16.60;;
71777;SDS011;59609;52.430;4.668;2023-04-09T10:26:13;37.08;;;16.25;;
71777;SDS011;59609;52.430;4.668;2023-04-09T10:28:38;34.85;;;16.20;;
71777;SDS011;59609;52.430;4.668;2023-04-09T10:31:05;34.22;;;16.67;;
71777;SDS011;59609;52.430;4.668;2023-04-09T10:33:31;33.65;;;16.05;;
71777;SDS011;59609;52.430;4.668;2023-04-09T10:36:02;39.42;;;16.73;;
71777;SDS011;59609;52.430;4.668;2023-04-09T10:38:36;37.17;;;16.98;;
71777;SDS011;59609;52.430;4.668;2023-04-09T10:43:41;39.53;;;18.13;;
71777;SDS011;59609;52.430;4.668;2023-04-09T10:46:23;38.17;;;18.00;;
71777;SDS011;59609;52.430;4.668;2023-04-09T10:49:09;39.00;;;18.52;;
71777;SDS011;59609;52.430;4.668;2023-04-09T10:51:39;38.35;;;17.85;;
71777;SDS011;59609;52.430;4.668;2023-04-09T10:54:06;37.22;;;17.70;;
71777;SDS011;59609;52.430;4.668;2023-04-09T10:57:30;39.45;;;17.05;;
71777;SDS011;59609;52.430;4.668;2023-04-09T10:59:51;40.03;;;18.80;;
71777;SDS011;59609;52.430;4.668;2023-04-09T11:07:52;35.75;;;18.48;;
71777;SDS011;59609;52.430;4.668;2023-04-09T11:10:20;36.17;;;17.98;;
71777;SDS011;59609;52.430;4.668;2023-04-09T11:12:49;40.03;;;18.02;;
71777;SDS011;59609;52.430;4.668;2023-04-09T11:17:40;35.25;;;17.63;;
71777;SDS011;59609;52.430;4.668;2023-04-09T11:20:07;36.55;;;17.92;;
71777;SDS011;59609;52.430;4.668;2023-04-09T11:22:34;36.33;;;17.88;;
71777;SDS011;59609;52.430;4.668;2023-04-09T11:25:00;34.03;;;17.98;;
71777;SDS011;59609;52.430;4.668;2023-04-09T11:27:25;37.92;;;18.63;;
71777;SDS011;59609;52.430;4.668;2023-04-09T11:29:54;36.03;;;18.40;;
71777;SDS011;59609;52.430;4.668;2023-04-09T11:32:20;43.08;;;19.92;;
71777;SDS011;59609;52.430;4.668;2023-04-09T11:34:45;34.30;;;17.77;;
71777;SDS011;59609;52.430;4.668;2023-04-09T11:37:14;35.55;;;18.10;;
71777;SDS011;59609;52.430;4.668;2023-04-09T11:39:44;39.83;;;19.63;;
71777;SDS011;59609;52.430;4.668;2023-04-09T11:42:13;38.22;;;19.63;;
71777;SDS011;59609;52.430;4.668;2023-04-09T11:44:39;35.17;;;18.08;;
71777;SDS011;59609;52.430;4.668;2023-04-09T11:47:05;36.53;;;19.00;;
71777;SDS011;59609;52.430;4.668;2023-04-09T11:49:32;31.58;;;18.92;;
71777;SDS011;59609;52.430;4.668;2023-04-09T11:51:58;37.58;;;19.73;;
71777;SDS011;59609;52.430;4.668;2023-04-09T11:54:30;30.27;;;16.65;;
71777;SDS011;59609;52.430;4.668;2023-04-09T11:56:57;35.50;;;18.48;;
71777;SDS011;59609;52.430;4.668;2023-04-09T11:59:23;39.08;;;20.77;;
71777;SDS011;59609;52.430;4.668;2023-04-09T12:01:49;32.72;;;18.98;;
71777;SDS011;59609;52.430;4.668;2023-04-09T12:04:19;31.33;;;16.85;;
71777;SDS011;59609;52.430;4.668;2023-04-09T12:06:45;33.17;;;17.05;;
71777;SDS011;59609;52.430;4.668;2023-04-09T12:09:11;35.65;;;19.45;;
71777;SDS011;59609;52.430;4.668;2023-04-09T12:11:38;37.08;;;20.25;;
71777;SDS011;59609;52.430;4.668;2023-04-09T12:14:06;32.03;;;18.15;;
71777;SDS011;59609;52.430;4.668;2023-04-09T12:16:36;33.97;;;18.50;;
71777;SDS011;59609;52.430;4.668;2023-04-09T12:19:05;34.30;;;19.55;;
71777;SDS011;59609;52.430;4.668;2023-04-09T12:24:19;32.90;;;18.77;;
71777;SDS011;59609;52.430;4.668;2023-04-09T12:26:47;32.22;;;18.25;;
71777;SDS011;59609;52.430;4.668;2023-04-09T12:29:13;31.92;;;19.13;;
71777;SDS011;59609;52.430;4.668;2023-04-09T12:31:39;33.85;;;19.00;;
71777;SDS011;59609;52.430;4.668;2023-04-09T12:34:05;29.63;;;17.48;;
71777;SDS011;59609;52.430;4.668;2023-04-09T12:36:30;27.00;;;17.38;;
71777;SDS011;59609;52.430;4.668;2023-04-09T12:38:56;32.85;;;20.08;;
71777;SDS011;59609;52.430;4.668;2023-04-09T12:41:21;30.10;;;16.10;;
71777;SDS011;59609;52.430;4.668;2023-04-09T12:43:47;32.55;;;19.52;;
71777;SDS011;59609;52.430;4.668;2023-04-09T12:46:13;30.88;;;16.23;;
71777;SDS011;59609;52.430;4.668;2023-04-09T12:48:38;31.02;;;18.75;;
71777;SDS011;59609;52.430;4.668;2023-04-09T12:51:04;26.92;;;17.33;;
71777;SDS011;59609;52.430;4.668;2023-04-09T12:53:30;30.58;;;17.98;;
71777;SDS011;59609;52.430;4.668;2023-04-09T12:55:56;30.83;;;19.00;;
71777;SDS011;59609;52.430;4.668;2023-04-09T12:58:21;29.25;;;18.63;;
71777;SDS011;59609;52.430;4.668;2023-04-09T13:00:47;28.35;;;17.73;;
71777;SDS011;59609;52.430;4.668;2023-04-09T13:03:12;27.15;;;17.25;;
71777;SDS011;59609;52.430;4.668;2023-04-09T13:05:40;28.50;;;18.02;;
71777;SDS011;59609;52.430;4.668;2023-04-09T13:08:06;29.58;;;18.48;;
71777;SDS011;59609;52.430;4.668;2023-04-09T13:10:31;30.13;;;18.77;;
71777;SDS011;59609;52.430;4.668;2023-04-09T13:12:57;32.47;;;20.65;;
71777;SDS011;59609;52.430;4.668;2023-04-09T13:15:22;29.58;;;19.30;;
71777;SDS011;59609;52.430;4.668;2023-04-09T13:17:48;31.65;;;18.77;;
71777;SDS011;59609;52.430;4.668;2023-04-09T13:20:13;32.30;;;18.77;;
71777;SDS011;59609;52.430;4.668;2023-04-09T13:22:39;32.42;;;19.75;;
71777;SDS011;59609;52.430;4.668;2023-04-09T13:25:04;36.15;;;21.02;;
71777;SDS011;59609;52.430;4.668;2023-04-09T13:27:30;29.95;;;18.83;;
71777;SDS011;59609;52.430;4.668;2023-04-09T13:29:55;33.22;;;19.63;;
71777;SDS011;59609;52.430;4.668;2023-04-09T13:32:21;29.13;;;18.42;;
71777;SDS011;59609;52.430;4.668;2023-04-09T13:34:48;28.58;;;17.55;;
71777;SDS011;59609;52.430;4.668;2023-04-09T13:37:13;23.90;;;16.70;;
71777;SDS011;59609;52.430;4.668;2023-04-09T13:39:40;26.45;;;18.13;;
71777;SDS011;59609;52.430;4.668;2023-04-09T13:42:05;24.58;;;17.35;;
71777;SDS011;59609;52.430;4.668;2023-04-09T13:44:31;24.48;;;16.70;;
71777;SDS011;59609;52.430;4.668;2023-04-09T13:46:56;26.05;;;17.17;;
71777;SDS011;59609;52.430;4.668;2023-04-09T13:49:22;24.27;;;15.02;;
71777;SDS011;59609;52.430;4.668;2023-04-09T13:51:48;24.10;;;16.73;;
71777;SDS011;59609;52.430;4.668;2023-04-09T13:54:13;24.13;;;15.95;;
71777;SDS011;59609;52.430;4.668;2023-04-09T13:56:39;26.10;;;17.20;;
71777;SDS011;59609;52.430;4.668;2023-04-09T13:59:05;27.40;;;17.73;;
71777;SDS011;59609;52.430;4.668;2023-04-09T14:01:30;25.75;;;16.58;;
71777;SDS011;59609;52.430;4.668;2023-04-09T14:03:56;23.13;;;15.98;;
71777;SDS011;59609;52.430;4.668;2023-04-09T14:06:21;28.95;;;16.80;;
71777;SDS011;59609;52.430;4.668;2023-04-09T14:08:46;24.13;;;15.43;;
71777;SDS011;59609;52.430;4.668;2023-04-09T14:11:12;27.88;;;15.13;;
71777;SDS011;59609;52.430;4.668;2023-04-09T14:13:39;35.67;;;17.70;;
71777;SDS011;59609;52.430;4.668;2023-04-09T14:16:05;40.45;;;20.67;;
71777;SDS011;59609;52.430;4.668;2023-04-09T14:18:31;41.95;;;21.40;;
71777;SDS011;59609;52.430;4.668;2023-04-09T14:20:57;38.42;;;20.17;;
71777;SDS011;59609;52.430;4.668;2023-04-09T14:23:24;39.88;;;21.90;;
71777;SDS011;59609;52.430;4.668;2023-04-09T14:25:50;36.88;;;20.27;;
71777;SDS011;59609;52.430;4.668;2023-04-09T14:28:15;38.10;;;19.77;;
71777;SDS011;59609;52.430;4.668;2023-04-09T14:30:41;35.33;;;21.05;;
71777;SDS011;59609;52.430;4.668;2023-04-09T14:33:06;34.92;;;19.92;;
71777;SDS011;59609;52.430;4.668;2023-04-09T14:35:32;34.25;;;19.95;;
71777;SDS011;59609;52.430;4.668;2023-04-09T14:37:57;33.92;;;19.83;;
71777;SDS011;59609;52.430;4.668;2023-04-09T14:40:23;31.77;;;18.45;;
71777;SDS011;59609;52.430;4.668;2023-04-09T14:42:48;32.08;;;20.08;;
71777;SDS011;59609;52.430;4.668;2023-04-09T14:45:14;30.75;;;18.02;;
71777;SDS011;59609;52.430;4.668;2023-04-09T14:47:42;28.73;;;17.27;;